sensor_id;sensor_type;location;lat;lon;timestamp;P1;P2;P0
76679;PMS5003;65597;51.520;-0.224;2023-03-01T00:00:12;8;8;
76679;PMS5003;65597;51.520;-0.224;2023-03-01T00:02:39;7;6;
76679;PMS5003;65597;51.520;-0.224;2023-03-01T00:05:03;8;7;
76679;PMS5003;65597;51.520;-0.224;2023-03-01T00:07:28;8;8;
76679;PMS5003;65597;51.520;-0.224;2023-03-01T00:09:53;6;6;
76679;PMS5003;65597;51.520;-0.224;2023-03-01T00:12:19;7;7;
76679;PMS5003;65597;51.520;-0.224;2023-03-01T00:14:46;7;7;
76679;PMS5003;65597;51.520;-0.224;2023-03-01T00:17:10;7;7;
76679;PMS5003;65597;51.520;-0.224;2023-03-01T00:19:35;8;7;
76679;PMS5003;65597;51.520;-0.224;2023-03-01T00:22:01;7;7;
76679;PMS5003;65597;51.520;-0.224;2023-03-01T00:24:26;7;6;
76679;PMS5003;65597;51.520;-0.224;2023-03-01T00:26:52;8;8;
76679;PMS5003;65597;51.520;-0.224;2023-03-01T00:29:17;7;6;
76679;PMS5003;65597;51.520;-0.224;2023-03-01T00:31:43;8;7;
76679;PMS5003;65597;51.520;-0.224;2023-03-01T00:34:09;7;7;
76679;PMS5003;65597;51.520;-0.224;2023-03-01T00:36:36;7;7;
76679;PMS5003;65597;51.520;-0.224;2023-03-01T00:39:01;7;7;
76679;PMS5003;65597;51.520;-0.224;2023-03-01T00:41:25;8;8;
76679;PMS5003;65597;51.520;-0.224;2023-03-01T00:43:51;7;6;
76679;PMS5003;65597;51.520;-0.224;2023-03-01T00:46:17;9;8;
76679;PMS5003;65597;51.520;-0.224;2023-03-01T00:48:42;8;7;
76679;PMS5003;65597;51.520;-0.224;2023-03-01T00:51:09;7;7;
76679;PMS5003;65597;51.520;-0.224;2023-03-01T00:53:33;12;9;
76679;PMS5003;65597;51.520;-0.224;2023-03-01T00:55:58;8;7;
76679;PMS5003;65597;51.520;-0.224;2023-03-01T00:58:23;7;5;
76679;PMS5003;65597;51.520;-0.224;2023-03-01T01:00:49;7;7;
76679;PMS5003;65597;51.520;-0.224;2023-03-01T01:03:14;6;6;
76679;PMS5003;65597;51.520;-0.224;2023-03-01T01:05:40;6;6;
76679;PMS5003;65597;51.520;-0.224;2023-03-01T01:08:05;8;8;
76679;PMS5003;65597;51.520;-0.224;2023-03-01T01:10:33;8;8;
76679;PMS5003;65597;51.520;-0.224;2023-03-01T01:12:57;7;7;
76679;PMS5003;65597;51.520;-0.224;2023-03-01T01:15:25;7;7;
76679;PMS5003;65597;51.520;-0.224;2023-03-01T01:17:48;7;5;
76679;PMS5003;65597;51.520;-0.224;2023-03-01T01:20:13;8;8;
76679;PMS5003;65597;51.520;-0.224;2023-03-01T01:22:39;5;5;
76679;PMS5003;65597;51.520;-0.224;2023-03-01T01:25:04;6;5;
76679;PMS5003;65597;51.520;-0.224;2023-03-01T01:27:31;6;6;
76679;PMS5003;65597;51.520;-0.224;2023-03-01T01:29:55;8;6;
76679;PMS5003;65597;51.520;-0.224;2023-03-01T01:32:21;4;4;
76679;PMS5003;65597;51.520;-0.224;2023-03-01T01:34:46;5;5;
76679;PMS5003;65597;51.520;-0.224;2023-03-01T01:37:12;6;5;
76679;PMS5003;65597;51.520;-0.224;2023-03-01T01:39:39;8;7;
76679;PMS5003;65597;51.520;-0.224;2023-03-01T01:42:03;7;6;
76679;PMS5003;65597;51.520;-0.224;2023-03-01T01:44:29;6;5;
76679;PMS5003;65597;51.520;-0.224;2023-03-01T01:46:55;8;7;
76679;PMS5003;65597;51.520;-0.224;2023-03-01T01:49:23;7;7;
76679;PMS5003;65597;51.520;-0.224;2023-03-01T01:51:47;8;8;
76679;PMS5003;65597;51.520;-0.224;2023-03-01T01:54:12;7;7;
76679;PMS5003;65597;51.520;-0.224;2023-03-01T01:56:36;4;4;
76679;PMS5003;65597;51.520;-0.224;2023-03-01T01:59:01;4;4;
76679;PMS5003;65597;51.520;-0.224;2023-03-01T02:01:27;8;7;
76679;PMS5003;65597;51.520;-0.224;2023-03-01T02:03:54;6;5;
76679;PMS5003;65597;51.520;-0.224;2023-03-01T02:06:20;6;6;
76679;PMS5003;65597;51.520;-0.224;2023-03-01T02:08:44;6;6;
76679;PMS5003;65597;51.520;-0.224;2023-03-01T02:11:09;5;5;
76679;PMS5003;65597;51.520;-0.224;2023-03-01T02:13:35;5;5;
76679;PMS5003;65597;51.520;-0.224;2023-03-01T02:16:02;3;3;
76679;PMS5003;65597;51.520;-0.224;2023-03-01T02:18:26;3;3;
76679;PMS5003;65597;51.520;-0.224;2023-03-01T02:20:55;4;3;
76679;PMS5003;65597;51.520;-0.224;2023-03-01T02:23:17;4;4;
76679;PMS5003;65597;51.520;-0.224;2023-03-01T02:25:44;6;6;
76679;PMS5003;65597;51.520;-0.224;2023-03-01T02:30:33;3;3;
76679;PMS5003;65597;51.520;-0.224;2023-03-01T02:32:59;4;4;
76679;PMS5003;65597;51.520;-0.224;2023-03-01T02:35:24;3;3;
76679;PMS5003;65597;51.520;-0.224;2023-03-01T02:37:50;5;4;
76679;PMS5003;65597;51.520;-0.224;2023-03-01T02:40:17;3;3;
76679;PMS5003;65597;51.520;-0.224;2023-03-01T02:42:42;6;6;
76679;PMS5003;65597;51.520;-0.224;2023-03-01T02:45:06;4;3;
76679;PMS5003;65597;51.520;-0.224;2023-03-01T02:47:32;5;5;
76679;PMS5003;65597;51.520;-0.224;2023-03-01T02:49:57;5;3;
76679;PMS5003;65597;51.520;-0.224;2023-03-01T02:54:49;2;2;
76679;PMS5003;65597;51.520;-0.224;2023-03-01T02:57:14;3;3;
76679;PMS5003;65597;51.520;-0.224;2023-03-01T02:59:39;3;3;
76679;PMS5003;65597;51.520;-0.224;2023-03-01T03:02:05;5;3;
76679;PMS5003;65597;51.520;-0.224;2023-03-01T03:04:32;2;2;
76679;PMS5003;65597;51.520;-0.224;2023-03-01T03:06:56;3;3;
76679;PMS5003;65597;51.520;-0.224;2023-03-01T03:09:21;3;3;
76679;PMS5003;65597;51.520;-0.224;2023-03-01T03:11:47;3;2;
76679;PMS5003;65597;51.520;-0.224;2023-03-01T03:14:13;4;3;
76679;PMS5003;65597;51.520;-0.224;2023-03-01T03:16:39;2;2;
76679;PMS5003;65597;51.520;-0.224;2023-03-01T03:19:03;2;2;
76679;PMS5003;65597;51.520;-0.224;2023-03-01T03:21:29;3;2;
76679;PMS5003;65597;51.520;-0.224;2023-03-01T03:23:54;4;4;
76679;PMS5003;65597;51.520;-0.224;2023-03-01T03:26:20;2;2;
76679;PMS5003;65597;51.520;-0.224;2023-03-01T03:28:45;3;2;
76679;PMS5003;65597;51.520;-0.224;2023-03-01T03:31:11;3;3;
76679;PMS5003;65597;51.520;-0.224;2023-03-01T03:33:36;3;3;
76679;PMS5003;65597;51.520;-0.224;2023-03-01T03:36:02;2;2;
76679;PMS5003;65597;51.520;-0.224;2023-03-01T03:38:27;3;3;
76679;PMS5003;65597;51.520;-0.224;2023-03-01T03:40:59;3;3;
76679;PMS5003;65597;51.520;-0.224;2023-03-01T03:43:19;4;4;
76679;PMS5003;65597;51.520;-0.224;2023-03-01T03:45:44;2;2;
76679;PMS5003;65597;51.520;-0.224;2023-03-01T03:48:09;3;3;
76679;PMS5003;65597;51.520;-0.224;2023-03-01T03:50:35;3;3;
76679;PMS5003;65597;51.520;-0.224;2023-03-01T03:53:01;3;3;
76679;PMS5003;65597;51.520;-0.224;2023-03-01T03:55:26;3;3;
76679;PMS5003;65597;51.520;-0.224;2023-03-01T03:57:51;2;2;
76679;PMS5003;65597;51.520;-0.224;2023-03-01T04:00:18;2;2;
76679;PMS5003;65597;51.520;-0.224;2023-03-01T04:02:43;3;2;
76679;PMS5003;65597;51.520;-0.224;2023-03-01T04:05:11;4;3;
76679;PMS5003;65597;51.520;-0.224;2023-03-01T04:07:34;2;2;
76679;PMS5003;65597;51.520;-0.224;2023-03-01T04:09:59;4;3;
76679;PMS5003;65597;51.520;-0.224;2023-03-01T04:12:25;3;3;
76679;PMS5003;65597;51.520;-0.224;2023-03-01T04:14:50;2;2;
76679;PMS5003;65597;51.520;-0.224;2023-03-01T04:17:16;2;2;
76679;PMS5003;65597;51.520;-0.224;2023-03-01T04:19:41;1;1;
76679;PMS5003;65597;51.520;-0.224;2023-03-01T04:22:07;3;3;
76679;PMS5003;65597;51.520;-0.224;2023-03-01T04:24:32;3;3;
76679;PMS5003;65597;51.520;-0.224;2023-03-01T04:26:58;2;2;
76679;PMS5003;65597;51.520;-0.224;2023-03-01T04:29:25;3;3;
76679;PMS5003;65597;51.520;-0.224;2023-03-01T04:31:49;3;2;
76679;PMS5003;65597;51.520;-0.224;2023-03-01T04:34:15;7;4;
76679;PMS5003;65597;51.520;-0.224;2023-03-01T04:36:40;3;3;
76679;PMS5003;65597;51.520;-0.224;2023-03-01T04:39:05;3;3;
76679;PMS5003;65597;51.520;-0.224;2023-03-01T04:41:33;1;1;
76679;PMS5003;65597;51.520;-0.224;2023-03-01T04:43:57;2;2;
76679;PMS5003;65597;51.520;-0.224;2023-03-01T04:46:22;2;2;
76679;PMS5003;65597;51.520;-0.224;2023-03-01T04:48:48;2;2;
76679;PMS5003;65597;51.520;-0.224;2023-03-01T04:51:13;2;2;
76679;PMS5003;65597;51.520;-0.224;2023-03-01T04:53:39;2;2;
76679;PMS5003;65597;51.520;-0.224;2023-03-01T04:56:04;3;3;
76679;PMS5003;65597;51.520;-0.224;2023-03-01T04:58:30;5;3;
76679;PMS5003;65597;51.520;-0.224;2023-03-01T05:00:55;3;2;
76679;PMS5003;65597;51.520;-0.224;2023-03-01T05:03:21;3;3;
76679;PMS5003;65597;51.520;-0.224;2023-03-01T05:05:48;2;2;
76679;PMS5003;65597;51.520;-0.224;2023-03-01T05:08:12;3;3;
76679;PMS5003;65597;51.520;-0.224;2023-03-01T05:10:37;3;3;
76679;PMS5003;65597;51.520;-0.224;2023-03-01T05:13:03;2;2;
76679;PMS5003;65597;51.520;-0.224;2023-03-01T05:15:29;2;2;
76679;PMS5003;65597;51.520;-0.224;2023-03-01T05:17:56;2;1;
76679;PMS5003;65597;51.520;-0.224;2023-03-01T05:20:20;2;2;
76679;PMS5003;65597;51.520;-0.224;2023-03-01T05:22:45;1;1;
76679;PMS5003;65597;51.520;-0.224;2023-03-01T05:25:10;2;2;
76679;PMS5003;65597;51.520;-0.224;2023-03-01T05:27:36;1;1;
76679;PMS5003;65597;51.520;-0.224;2023-03-01T05:30:01;3;2;
76679;PMS5003;65597;51.520;-0.224;2023-03-01T05:32:27;2;2;
76679;PMS5003;65597;51.520;-0.224;2023-03-01T05:34:52;1;1;
76679;PMS5003;65597;51.520;-0.224;2023-03-01T05:37:18;3;2;
76679;PMS5003;65597;51.520;-0.224;2023-03-01T05:39:43;2;2;
76679;PMS5003;65597;51.520;-0.224;2023-03-01T05:42:10;2;2;
76679;PMS5003;65597;51.520;-0.224;2023-03-01T05:44:34;3;3;
76679;PMS5003;65597;51.520;-0.224;2023-03-01T05:47:00;2;2;
76679;PMS5003;65597;51.520;-0.224;2023-03-01T05:49:25;3;2;
76679;PMS5003;65597;51.520;-0.224;2023-03-01T05:51:52;2;2;
76679;PMS5003;65597;51.520;-0.224;2023-03-01T05:54:17;3;3;
76679;PMS5003;65597;51.520;-0.224;2023-03-01T05:56:42;1;1;
76679;PMS5003;65597;51.520;-0.224;2023-03-01T05:59:07;2;2;
76679;PMS5003;65597;51.520;-0.224;2023-03-01T06:01:33;2;2;
76679;PMS5003;65597;51.520;-0.224;2023-03-01T06:03:58;3;3;
76679;PMS5003;65597;51.520;-0.224;2023-03-01T06:06:26;3;3;
76679;PMS5003;65597;51.520;-0.224;2023-03-01T06:08:50;2;2;
76679;PMS5003;65597;51.520;-0.224;2023-03-01T06:11:15;2;2;
76679;PMS5003;65597;51.520;-0.224;2023-03-01T06:13:41;3;3;
76679;PMS5003;65597;51.520;-0.224;2023-03-01T06:16:07;3;3;
76679;PMS5003;65597;51.520;-0.224;2023-03-01T06:18:32;1;1;
76679;PMS5003;65597;51.520;-0.224;2023-03-01T06:20:57;2;2;
76679;PMS5003;65597;51.520;-0.224;2023-03-01T06:23:23;4;3;
76679;PMS5003;65597;51.520;-0.224;2023-03-01T06:25:48;2;2;
76679;PMS5003;65597;51.520;-0.224;2023-03-01T06:28:14;3;3;
76679;PMS5003;65597;51.520;-0.224;2023-03-01T06:30:39;3;3;
76679;PMS5003;65597;51.520;-0.224;2023-03-01T06:33:05;2;2;
76679;PMS5003;65597;51.520;-0.224;2023-03-01T06:35:30;2;2;
76679;PMS5003;65597;51.520;-0.224;2023-03-01T06:37:56;3;3;
76679;PMS5003;65597;51.520;-0.224;2023-03-01T06:40:21;4;2;
76679;PMS5003;65597;51.520;-0.224;2023-03-01T06:42:49;3;3;
76679;PMS5003;65597;51.520;-0.224;2023-03-01T06:45:12;3;2;
76679;PMS5003;65597;51.520;-0.224;2023-03-01T06:47:38;5;5;
76679;PMS5003;65597;51.520;-0.224;2023-03-01T06:50:03;6;5;
76679;PMS5003;65597;51.520;-0.224;2023-03-01T06:52:29;3;3;
76679;PMS5003;65597;51.520;-0.224;2023-03-01T06:54:56;2;2;
76679;PMS5003;65597;51.520;-0.224;2023-03-01T06:57:20;4;3;
76679;PMS5003;65597;51.520;-0.224;2023-03-01T06:59:46;5;5;
76679;PMS5003;65597;51.520;-0.224;2023-03-01T07:02:11;4;4;
76679;PMS5003;65597;51.520;-0.224;2023-03-01T07:04:36;4;4;
76679;PMS5003;65597;51.520;-0.224;2023-03-01T07:07:02;5;3;
76679;PMS5003;65597;51.520;-0.224;2023-03-01T07:09:27;4;4;
76679;PMS5003;65597;51.520;-0.224;2023-03-01T07:11:53;3;3;
76679;PMS5003;65597;51.520;-0.224;2023-03-01T07:14:18;3;3;
76679;PMS5003;65597;51.520;-0.224;2023-03-01T07:16:44;3;3;
76679;PMS5003;65597;51.520;-0.224;2023-03-01T07:19:09;3;3;
76679;PMS5003;65597;51.520;-0.224;2023-03-01T07:21:35;4;4;
76679;PMS5003;65597;51.520;-0.224;2023-03-01T07:24:00;4;4;
76679;PMS5003;65597;51.520;-0.224;2023-03-01T07:26:26;3;3;
76679;PMS5003;65597;51.520;-0.224;2023-03-01T07:28:51;3;3;
76679;PMS5003;65597;51.520;-0.224;2023-03-01T07:31:17;3;3;
76679;PMS5003;65597;51.520;-0.224;2023-03-01T07:33:42;3;3;
76679;PMS5003;65597;51.520;-0.224;2023-03-01T07:36:08;3;3;
76679;PMS5003;65597;51.520;-0.224;2023-03-01T07:38:33;4;3;
76679;PMS5003;65597;51.520;-0.224;2023-03-01T07:41:00;4;4;
76679;PMS5003;65597;51.520;-0.224;2023-03-01T07:43:24;2;2;
76679;PMS5003;65597;51.520;-0.224;2023-03-01T07:45:50;3;3;
76679;PMS5003;65597;51.520;-0.224;2023-03-01T07:48:16;4;4;
76679;PMS5003;65597;51.520;-0.224;2023-03-01T07:50:41;7;5;
76679;PMS5003;65597;51.520;-0.224;2023-03-01T07:53:07;3;3;
76679;PMS5003;65597;51.520;-0.224;2023-03-01T07:55:32;4;4;
76679;PMS5003;65597;51.520;-0.224;2023-03-01T07:57:57;4;4;
76679;PMS5003;65597;51.520;-0.224;2023-03-01T08:00:23;4;3;
76679;PMS5003;65597;51.520;-0.224;2023-03-01T08:02:49;4;4;
76679;PMS5003;65597;51.520;-0.224;2023-03-01T08:05:14;3;3;
76679;PMS5003;65597;51.520;-0.224;2023-03-01T08:07:41;2;2;
76679;PMS5003;65597;51.520;-0.224;2023-03-01T08:10:05;4;3;
76679;PMS5003;65597;51.520;-0.224;2023-03-01T08:12:31;4;3;
76679;PMS5003;65597;51.520;-0.224;2023-03-01T08:14:56;3;3;
76679;PMS5003;65597;51.520;-0.224;2023-03-01T08:17:21;5;4;
76679;PMS5003;65597;51.520;-0.224;2023-03-01T08:19:49;4;3;
76679;PMS5003;65597;51.520;-0.224;2023-03-01T08:22:13;3;3;
76679;PMS5003;65597;51.520;-0.224;2023-03-01T08:24:38;5;4;
76679;PMS5003;65597;51.520;-0.224;2023-03-01T08:27:04;3;3;
76679;PMS5003;65597;51.520;-0.224;2023-03-01T08:29:30;4;4;
76679;PMS5003;65597;51.520;-0.224;2023-03-01T08:31:54;3;3;
76679;PMS5003;65597;51.520;-0.224;2023-03-01T08:34:20;6;5;
76679;PMS5003;65597;51.520;-0.224;2023-03-01T08:36:45;7;6;
76679;PMS5003;65597;51.520;-0.224;2023-03-01T08:39:11;5;5;
76679;PMS5003;65597;51.520;-0.224;2023-03-01T08:41:36;4;4;
76679;PMS5003;65597;51.520;-0.224;2023-03-01T08:44:04;6;6;
76679;PMS5003;65597;51.520;-0.224;2023-03-01T08:46:28;3;3;
76679;PMS5003;65597;51.520;-0.224;2023-03-01T08:48:53;4;4;
76679;PMS5003;65597;51.520;-0.224;2023-03-01T08:51:19;3;3;
76679;PMS5003;65597;51.520;-0.224;2023-03-01T08:53:44;3;3;
76679;PMS5003;65597;51.520;-0.224;2023-03-01T08:56:10;3;3;
76679;PMS5003;65597;51.520;-0.224;2023-03-01T08:58:35;5;4;
76679;PMS5003;65597;51.520;-0.224;2023-03-01T09:01:00;4;4;
76679;PMS5003;65597;51.520;-0.224;2023-03-01T09:03:26;3;3;
76679;PMS5003;65597;51.520;-0.224;2023-03-01T09:05:51;3;3;
76679;PMS5003;65597;51.520;-0.224;2023-03-01T09:08:17;2;2;
76679;PMS5003;65597;51.520;-0.224;2023-03-01T09:10:42;4;3;
76679;PMS5003;65597;51.520;-0.224;2023-03-01T09:13:08;4;4;
76679;PMS5003;65597;51.520;-0.224;2023-03-01T09:15:33;2;2;
76679;PMS5003;65597;51.520;-0.224;2023-03-01T09:17:59;2;2;
76679;PMS5003;65597;51.520;-0.224;2023-03-01T09:20:24;3;3;
76679;PMS5003;65597;51.520;-0.224;2023-03-01T09:22:50;3;2;
76679;PMS5003;65597;51.520;-0.224;2023-03-01T09:25:15;3;3;
76679;PMS5003;65597;51.520;-0.224;2023-03-01T09:27:41;3;2;
76679;PMS5003;65597;51.520;-0.224;2023-03-01T09:30:08;1;1;
76679;PMS5003;65597;51.520;-0.224;2023-03-01T09:32:33;1;1;
76679;PMS5003;65597;51.520;-0.224;2023-03-01T09:34:57;1;1;
76679;PMS5003;65597;51.520;-0.224;2023-03-01T09:37:23;3;3;
76679;PMS5003;65597;51.520;-0.224;2023-03-01T09:39:48;2;2;
76679;PMS5003;65597;51.520;-0.224;2023-03-01T09:42:14;1;1;
76679;PMS5003;65597;51.520;-0.224;2023-03-01T09:44:42;2;2;
76679;PMS5003;65597;51.520;-0.224;2023-03-01T09:47:05;1;1;
76679;PMS5003;65597;51.520;-0.224;2023-03-01T09:49:31;1;1;
76679;PMS5003;65597;51.520;-0.224;2023-03-01T09:51:57;2;2;
76679;PMS5003;65597;51.520;-0.224;2023-03-01T09:54:21;1;1;
76679;PMS5003;65597;51.520;-0.224;2023-03-01T09:56:52;1;1;
76679;PMS5003;65597;51.520;-0.224;2023-03-01T09:59:17;1;1;
76679;PMS5003;65597;51.520;-0.224;2023-03-01T10:01:38;0;0;
76679;PMS5003;65597;51.520;-0.224;2023-03-01T10:04:05;0;0;
76679;PMS5003;65597;51.520;-0.224;2023-03-01T10:06:29;1;0;
76679;PMS5003;65597;51.520;-0.224;2023-03-01T10:08:54;1;1;
76679;PMS5003;65597;51.520;-0.224;2023-03-01T10:11:20;1;1;
76679;PMS5003;65597;51.520;-0.224;2023-03-01T10:13:46;3;2;
76679;PMS5003;65597;51.520;-0.224;2023-03-01T10:16:12;2;1;
76679;PMS5003;65597;51.520;-0.224;2023-03-01T10:18:36;1;1;
76679;PMS5003;65597;51.520;-0.224;2023-03-01T10:21:02;1;1;
76679;PMS5003;65597;51.520;-0.224;2023-03-01T10:23:28;1;1;
76679;PMS5003;65597;51.520;-0.224;2023-03-01T10:25:56;2;2;
76679;PMS5003;65597;51.520;-0.224;2023-03-01T10:28:20;2;1;
76679;PMS5003;65597;51.520;-0.224;2023-03-01T10:30:43;1;1;
76679;PMS5003;65597;51.520;-0.224;2023-03-01T10:33:13;1;1;
76679;PMS5003;65597;51.520;-0.224;2023-03-01T10:35:34;1;0;
76679;PMS5003;65597;51.520;-0.224;2023-03-01T10:38:03;1;1;
76679;PMS5003;65597;51.520;-0.224;2023-03-01T10:40:25;2;2;
76679;PMS5003;65597;51.520;-0.224;2023-03-01T10:42:51;2;2;
76679;PMS5003;65597;51.520;-0.224;2023-03-01T10:45:22;2;2;
76679;PMS5003;65597;51.520;-0.224;2023-03-01T10:47:42;2;2;
76679;PMS5003;65597;51.520;-0.224;2023-03-01T10:50:18;2;2;
76679;PMS5003;65597;51.520;-0.224;2023-03-01T10:52:34;4;2;
76679;PMS5003;65597;51.520;-0.224;2023-03-01T10:54:59;2;2;
76679;PMS5003;65597;51.520;-0.224;2023-03-01T10:57:28;2;2;
76679;PMS5003;65597;51.520;-0.224;2023-03-01T10:59:51;1;1;
76679;PMS5003;65597;51.520;-0.224;2023-03-01T11:02:16;1;1;
76679;PMS5003;65597;51.520;-0.224;2023-03-01T11:04:43;2;2;
76679;PMS5003;65597;51.520;-0.224;2023-03-01T11:07:06;3;3;
76679;PMS5003;65597;51.520;-0.224;2023-03-01T11:09:32;3;2;
76679;PMS5003;65597;51.520;-0.224;2023-03-01T11:11:57;3;3;
76679;PMS5003;65597;51.520;-0.224;2023-03-01T11:14:23;5;4;
76679;PMS5003;65597;51.520;-0.224;2023-03-01T11:16:48;2;2;
76679;PMS5003;65597;51.520;-0.224;2023-03-01T11:19:17;3;3;
76679;PMS5003;65597;51.520;-0.224;2023-03-01T11:21:41;2;2;
76679;PMS5003;65597;51.520;-0.224;2023-03-01T11:24:05;3;3;
76679;PMS5003;65597;51.520;-0.224;2023-03-01T11:26:30;3;3;
76679;PMS5003;65597;51.520;-0.224;2023-03-01T11:28:55;2;2;
76679;PMS5003;65597;51.520;-0.224;2023-03-01T11:31:20;1;1;
76679;PMS5003;65597;51.520;-0.224;2023-03-01T11:33:47;10;9;
76679;PMS5003;65597;51.520;-0.224;2023-03-01T11:36:15;3;3;
76679;PMS5003;65597;51.520;-0.224;2023-03-01T11:38:37;2;2;
76679;PMS5003;65597;51.520;-0.224;2023-03-01T11:41:04;2;1;
76679;PMS5003;65597;51.520;-0.224;2023-03-01T11:43:30;2;2;
76679;PMS5003;65597;51.520;-0.224;2023-03-01T11:45:57;3;3;
76679;PMS5003;65597;51.520;-0.224;2023-03-01T11:48:28;2;2;
76679;PMS5003;65597;51.520;-0.224;2023-03-01T11:50:45;3;3;
76679;PMS5003;65597;51.520;-0.224;2023-03-01T11:53:17;4;3;
76679;PMS5003;65597;51.520;-0.224;2023-03-01T11:55:41;2;2;
76679;PMS5003;65597;51.520;-0.224;2023-03-01T11:58:05;2;2;
76679;PMS5003;65597;51.520;-0.224;2023-03-01T12:05:20;2;2;
76679;PMS5003;65597;51.520;-0.224;2023-03-01T12:07:44;3;3;
76679;PMS5003;65597;51.520;-0.224;2023-03-01T12:10:17;3;3;
76679;PMS5003;65597;51.520;-0.224;2023-03-01T12:12:36;4;3;
76679;PMS5003;65597;51.520;-0.224;2023-03-01T12:15:03;4;3;
76679;PMS5003;65597;51.520;-0.224;2023-03-01T12:17:29;6;4;
76679;PMS5003;65597;51.520;-0.224;2023-03-01T12:19:54;4;4;
76679;PMS5003;65597;51.520;-0.224;2023-03-01T12:22:19;5;5;
76679;PMS5003;65597;51.520;-0.224;2023-03-01T12:24:49;4;4;
76679;PMS5003;65597;51.520;-0.224;2023-03-01T12:27:12;4;4;
76679;PMS5003;65597;51.520;-0.224;2023-03-01T12:29:33;4;4;
76679;PMS5003;65597;51.520;-0.224;2023-03-01T12:32:05;4;4;
76679;PMS5003;65597;51.520;-0.224;2023-03-01T12:34:27;4;3;
76679;PMS5003;65597;51.520;-0.224;2023-03-01T12:36:52;4;4;
76679;PMS5003;65597;51.520;-0.224;2023-03-01T12:39:19;5;4;
76679;PMS5003;65597;51.520;-0.224;2023-03-01T12:41:42;4;4;
76679;PMS5003;65597;51.520;-0.224;2023-03-01T12:44:09;5;5;
76679;PMS5003;65597;51.520;-0.224;2023-03-01T12:46:34;7;6;
76679;PMS5003;65597;51.520;-0.224;2023-03-01T12:48:59;5;5;
76679;PMS5003;65597;51.520;-0.224;2023-03-01T12:51:22;6;6;
76679;PMS5003;65597;51.520;-0.224;2023-03-01T12:53:47;4;4;
76679;PMS5003;65597;51.520;-0.224;2023-03-01T12:56:14;6;4;
76679;PMS5003;65597;51.520;-0.224;2023-03-01T12:58:39;4;3;
76679;PMS5003;65597;51.520;-0.224;2023-03-01T13:01:07;4;3;
76679;PMS5003;65597;51.520;-0.224;2023-03-01T13:03:30;5;4;
76679;PMS5003;65597;51.520;-0.224;2023-03-01T13:06:00;3;3;
76679;PMS5003;65597;51.520;-0.224;2023-03-01T13:08:20;3;3;
76679;PMS5003;65597;51.520;-0.224;2023-03-01T13:10:46;3;3;
76679;PMS5003;65597;51.520;-0.224;2023-03-01T13:13:12;2;2;
76679;PMS5003;65597;51.520;-0.224;2023-03-01T13:15:37;3;2;
76679;PMS5003;65597;51.520;-0.224;2023-03-01T13:18:03;2;2;
76679;PMS5003;65597;51.520;-0.224;2023-03-01T13:20:30;1;1;
76679;PMS5003;65597;51.520;-0.224;2023-03-01T13:23:00;3;3;
76679;PMS5003;65597;51.520;-0.224;2023-03-01T13:25:19;3;2;
76679;PMS5003;65597;51.520;-0.224;2023-03-01T13:27:44;2;1;
76679;PMS5003;65597;51.520;-0.224;2023-03-01T13:32:35;3;2;
76679;PMS5003;65597;51.520;-0.224;2023-03-01T13:35:01;2;1;
76679;PMS5003;65597;51.520;-0.224;2023-03-01T13:37:27;2;2;
76679;PMS5003;65597;51.520;-0.224;2023-03-01T13:39:52;4;3;
76679;PMS5003;65597;51.520;-0.224;2023-03-01T13:44:42;3;2;
76679;PMS5003;65597;51.520;-0.224;2023-03-01T13:47:14;3;3;
76679;PMS5003;65597;51.520;-0.224;2023-03-01T13:49:35;2;2;
76679;PMS5003;65597;51.520;-0.224;2023-03-01T13:51:59;2;1;
76679;PMS5003;65597;51.520;-0.224;2023-03-01T13:54:25;1;1;
76679;PMS5003;65597;51.520;-0.224;2023-03-01T13:56:50;4;4;
76679;PMS5003;65597;51.520;-0.224;2023-03-01T13:59:17;4;3;
76679;PMS5003;65597;51.520;-0.224;2023-03-01T14:01:41;3;3;
76679;PMS5003;65597;51.520;-0.224;2023-03-01T14:06:32;3;2;
76679;PMS5003;65597;51.520;-0.224;2023-03-01T14:09:02;3;3;
76679;PMS5003;65597;51.520;-0.224;2023-03-01T14:11:29;1;1;
76679;PMS5003;65597;51.520;-0.224;2023-03-01T14:13:53;4;4;
76679;PMS5003;65597;51.520;-0.224;2023-03-01T14:16:18;4;3;
76679;PMS5003;65597;51.520;-0.224;2023-03-01T14:18:41;2;2;
76679;PMS5003;65597;51.520;-0.224;2023-03-01T14:21:07;3;3;
76679;PMS5003;65597;51.520;-0.224;2023-03-01T14:23:30;3;3;
76679;PMS5003;65597;51.520;-0.224;2023-03-01T14:25:57;3;3;
76679;PMS5003;65597;51.520;-0.224;2023-03-01T14:28:23;4;4;
76679;PMS5003;65597;51.520;-0.224;2023-03-01T14:30:47;3;3;
76679;PMS5003;65597;51.520;-0.224;2023-03-01T14:33:18;3;3;
76679;PMS5003;65597;51.520;-0.224;2023-03-01T14:35:39;3;3;
76679;PMS5003;65597;51.520;-0.224;2023-03-01T14:38:03;3;3;
76679;PMS5003;65597;51.520;-0.224;2023-03-01T14:40:29;2;2;
76679;PMS5003;65597;51.520;-0.224;2023-03-01T14:42:55;3;3;
76679;PMS5003;65597;51.520;-0.224;2023-03-01T14:45:20;3;3;
76679;PMS5003;65597;51.520;-0.224;2023-03-01T14:47:45;2;2;
76679;PMS5003;65597;51.520;-0.224;2023-03-01T14:50:15;3;3;
76679;PMS5003;65597;51.520;-0.224;2023-03-01T14:52:37;2;2;
76679;PMS5003;65597;51.520;-0.224;2023-03-01T14:55:03;2;2;
76679;PMS5003;65597;51.520;-0.224;2023-03-01T14:57:27;2;2;
76679;PMS5003;65597;51.520;-0.224;2023-03-01T14:59:53;3;2;
76679;PMS5003;65597;51.520;-0.224;2023-03-01T15:02:19;3;2;
76679;PMS5003;65597;51.520;-0.224;2023-03-01T15:04:43;2;2;
76679;PMS5003;65597;51.520;-0.224;2023-03-01T15:07:09;2;2;
76679;PMS5003;65597;51.520;-0.224;2023-03-01T15:09:34;2;2;
76679;PMS5003;65597;51.520;-0.224;2023-03-01T15:14:26;2;2;
76679;PMS5003;65597;51.520;-0.224;2023-03-01T15:16:51;4;2;
76679;PMS5003;65597;51.520;-0.224;2023-03-01T15:19:17;3;2;
76679;PMS5003;65597;51.520;-0.224;2023-03-01T15:21:42;2;2;
76679;PMS5003;65597;51.520;-0.224;2023-03-01T15:26:37;4;4;
76679;PMS5003;65597;51.520;-0.224;2023-03-01T15:28:59;3;3;
76679;PMS5003;65597;51.520;-0.224;2023-03-01T15:31:25;2;2;
76679;PMS5003;65597;51.520;-0.224;2023-03-01T15:33:50;2;2;
76679;PMS5003;65597;51.520;-0.224;2023-03-01T15:43:37;3;3;
76679;PMS5003;65597;51.520;-0.224;2023-03-01T15:45:57;4;3;
76679;PMS5003;65597;51.520;-0.224;2023-03-01T15:48:24;4;3;
76679;PMS5003;65597;51.520;-0.224;2023-03-01T15:53:13;4;4;
76679;PMS5003;65597;51.520;-0.224;2023-03-01T15:55:39;6;5;
76679;PMS5003;65597;51.520;-0.224;2023-03-01T15:58:05;5;4;
76679;PMS5003;65597;51.520;-0.224;2023-03-01T16:00:31;4;4;
76679;PMS5003;65597;51.520;-0.224;2023-03-01T16:02:55;6;5;
76679;PMS5003;65597;51.520;-0.224;2023-03-01T16:05:21;2;2;
76679;PMS5003;65597;51.520;-0.224;2023-03-01T16:07:46;4;4;
76679;PMS5003;65597;51.520;-0.224;2023-03-01T16:10:12;4;4;
76679;PMS5003;65597;51.520;-0.224;2023-03-01T16:12:37;2;2;
76679;PMS5003;65597;51.520;-0.224;2023-03-01T16:15:03;3;3;
76679;PMS5003;65597;51.520;-0.224;2023-03-01T16:17:28;2;2;
76679;PMS5003;65597;51.520;-0.224;2023-03-01T16:19:54;2;2;
76679;PMS5003;65597;51.520;-0.224;2023-03-01T16:22:19;3;1;
76679;PMS5003;65597;51.520;-0.224;2023-03-01T16:24:46;2;2;
76679;PMS5003;65597;51.520;-0.224;2023-03-01T16:27:10;2;2;
76679;PMS5003;65597;51.520;-0.224;2023-03-01T16:29:35;1;1;
76679;PMS5003;65597;51.520;-0.224;2023-03-01T16:32:01;2;1;
76679;PMS5003;65597;51.520;-0.224;2023-03-01T16:34:27;2;1;
76679;PMS5003;65597;51.520;-0.224;2023-03-01T16:36:53;2;2;
76679;PMS5003;65597;51.520;-0.224;2023-03-01T16:39:17;1;1;
76679;PMS5003;65597;51.520;-0.224;2023-03-01T16:41:43;1;1;
76679;PMS5003;65597;51.520;-0.224;2023-03-01T16:44:08;2;2;
76679;PMS5003;65597;51.520;-0.224;2023-03-01T16:46:34;3;2;
76679;PMS5003;65597;51.520;-0.224;2023-03-01T16:49:00;3;3;
76679;PMS5003;65597;51.520;-0.224;2023-03-01T16:51:25;2;2;